createdAt,value
2023-05-01T00:01:17.924Z,14.38
2023-05-01T00:03:46.747Z,17.45
2023-05-01T00:06:15.494Z,26.45
2023-05-01T00:08:43.786Z,18.55
2023-05-01T00:11:12.751Z,15.73
2023-05-01T00:13:40.959Z,13.90
2023-05-01T00:16:11.407Z,12.82
2023-05-01T00:18:39.861Z,11.95
2023-05-01T00:21:09.002Z,10.05
2023-05-01T00:23:37.353Z,8.65
2023-05-01T00:26:05.904Z,8.68
2023-05-01T00:28:34.248Z,9.25
2023-05-01T00:31:02.927Z,8.15
2023-05-01T00:33:31.149Z,8.85
2023-05-01T00:36:00.185Z,9.60
2023-05-01T00:38:28.719Z,9.23
2023-05-01T00:40:57.312Z,9.02
2023-05-01T00:43:25.615Z,8.25
2023-05-01T00:45:54.602Z,8.10
2023-05-01T00:48:23.401Z,7.47
2023-05-01T00:50:53.357Z,7.45
2023-05-01T00:53:22.282Z,7.40
2023-05-01T00:55:51.356Z,8.02
2023-05-01T00:58:19.682Z,9.32
2023-05-01T01:00:49.986Z,12.48
2023-05-01T01:03:18.618Z,10.73
2023-05-01T01:06:03.918Z,9.15
2023-05-01T01:09:08.485Z,8.10
2023-05-01T01:12:17.397Z,8.43
2023-05-01T01:15:27.291Z,31.17
2023-05-01T01:18:24.270Z,59.72
2023-05-01T01:21:14.881Z,43.53
2023-05-01T01:24:05.708Z,34.72
2023-05-01T01:26:53.481Z,30.45
2023-05-01T01:29:49.347Z,23.10
2023-05-01T01:32:34.574Z,16.75
2023-05-01T01:35:18.096Z,14.15
2023-05-01T01:38:06.816Z,12.30
2023-05-01T01:40:40.128Z,19.67
2023-05-01T01:43:11.155Z,23.08
2023-05-01T01:45:42.180Z,32.92
2023-05-01T01:48:17.959Z,27.45
2023-05-01T01:50:47.406Z,21.92
2023-05-01T01:53:18.759Z,11.32
2023-05-01T01:55:49.301Z,10.77
2023-05-01T01:58:21.792Z,9.60
2023-05-01T02:00:52.519Z,14.57
2023-05-01T02:03:23.212Z,8.85
2023-05-01T02:05:54.699Z,6.87
2023-05-01T02:08:25.522Z,7.03
2023-05-01T02:11:01.742Z,7.13
2023-05-01T02:13:32.560Z,6.75
2023-05-01T02:16:04.280Z,6.72
2023-05-01T02:18:34.188Z,6.65
2023-05-01T02:21:04.649Z,7.25
2023-05-01T02:23:39.209Z,7.28
2023-05-01T02:26:14.206Z,6.45
2023-05-01T02:28:42.671Z,7.05
2023-05-01T02:31:11.906Z,7.10
2023-05-01T02:33:40.415Z,8.20
2023-05-01T02:36:09.353Z,8.57
2023-05-01T02:38:37.985Z,10.07
2023-05-01T02:41:08.798Z,10.50
2023-05-01T02:43:39.352Z,8.77
2023-05-01T02:46:10.762Z,7.95
2023-05-01T02:48:40.728Z,7.83
2023-05-01T02:51:10.028Z,6.85
2023-05-01T02:53:40.445Z,6.63
2023-05-01T02:56:19.439Z,6.05
2023-05-01T02:58:50.716Z,7.70
2023-05-01T03:03:49.495Z,6.32
2023-05-01T03:06:19.603Z,7.05
2023-05-01T03:08:48.213Z,6.68
2023-05-01T03:11:16.932Z,6.28
2023-05-01T03:13:46.471Z,7.40
2023-05-01T03:16:15.039Z,7.65
2023-05-01T03:18:43.212Z,7.93
2023-05-01T03:21:13.371Z,8.02
2023-05-01T03:23:41.930Z,7.53
2023-05-01T03:26:10.510Z,7.75
2023-05-01T03:28:38.890Z,8.30
2023-05-01T03:31:07.994Z,9.45
2023-05-01T03:33:36.560Z,17.40
2023-05-01T03:36:06.162Z,43.90
2023-05-01T03:38:35.794Z,26.42
2023-05-01T03:41:27.763Z,13.57
2023-05-01T03:44:14.336Z,9.48
2023-05-01T03:46:45.976Z,7.53
2023-05-01T03:49:22.729Z,7.18
2023-05-01T03:51:52.219Z,7.20
2023-05-01T03:54:20.487Z,7.38
2023-05-01T03:56:59.062Z,7.40
2023-05-01T03:59:27.410Z,9.60
2023-05-01T04:01:56.060Z,12.77
2023-05-01T04:04:26.608Z,13.27
2023-05-01T04:06:58.665Z,12.43
2023-05-01T04:09:27.080Z,10.10
2023-05-01T04:11:56.163Z,8.15
2023-05-01T04:14:24.619Z,7.80
2023-05-01T04:16:58.312Z,7.43
2023-05-01T04:19:26.819Z,7.07
2023-05-01T04:22:00.540Z,6.68
2023-05-01T04:24:29.920Z,7.22
2023-05-01T04:26:58.900Z,7.10
2023-05-01T04:29:27.415Z,7.15
2023-05-01T04:31:56.449Z,7.22
2023-05-01T04:34:24.873Z,7.80
2023-05-01T04:36:53.695Z,8.15
2023-05-01T04:39:22.141Z,9.25
2023-05-01T04:41:53.390Z,9.10
2023-05-01T04:44:23.197Z,10.00
2023-05-01T04:46:51.917Z,11.85
2023-05-01T04:49:22.542Z,11.50
2023-05-01T04:51:51.125Z,11.75
2023-05-01T04:54:20.234Z,11.63
2023-05-01T04:56:49.147Z,11.52
2023-05-01T04:59:20.560Z,11.52
2023-05-01T05:01:49.334Z,14.07
2023-05-01T05:04:18.103Z,12.77
2023-05-01T05:06:47.045Z,14.63
2023-05-01T05:09:23.682Z,14.40
2023-05-01T05:11:53.535Z,14.82
2023-05-01T05:14:24.010Z,16.23
2023-05-01T05:16:53.321Z,15.70
2023-05-01T05:19:21.941Z,17.55
2023-05-01T05:21:50.725Z,13.98
2023-05-01T05:24:19.147Z,13.90
2023-05-01T05:26:47.886Z,12.73
2023-05-01T05:29:18.382Z,12.98
2023-05-01T05:31:47.689Z,12.93
2023-05-01T05:34:16.792Z,13.80
2023-05-01T05:36:45.627Z,14.77
2023-05-01T05:39:15.758Z,16.73
2023-05-01T05:41:49.304Z,14.30
2023-05-01T05:44:17.971Z,12.32
2023-05-01T05:46:46.981Z,12.48
2023-05-01T05:49:22.350Z,11.15
2023-05-01T05:51:51.828Z,12.98
2023-05-01T05:54:20.605Z,12.32
2023-05-01T05:56:51.440Z,13.18
2023-05-01T05:59:19.906Z,12.90
2023-05-01T06:01:49.146Z,11.90
2023-05-01T06:04:17.532Z,11.35
2023-05-01T06:06:47.682Z,12.50
2023-05-01T06:09:17.745Z,11.50
2023-05-01T06:11:48.050Z,8.82
2023-05-01T06:14:17.192Z,7.80
2023-05-01T06:16:47.694Z,8.50
2023-05-01T06:19:16.265Z,8.65
2023-05-01T06:21:46.971Z,7.72
2023-05-01T06:24:16.433Z,6.22
2023-05-01T06:26:49.509Z,5.40
2023-05-01T06:29:17.945Z,6.00
2023-05-01T06:31:49.296Z,4.75
2023-05-01T06:34:17.765Z,5.22
2023-05-01T06:37:05.326Z,5.45
2023-05-01T06:39:42.545Z,5.45
2023-05-01T06:42:17.154Z,5.10
2023-05-01T06:44:46.954Z,5.05
2023-05-01T06:47:15.843Z,5.35
2023-05-01T06:49:48.002Z,6.28
2023-05-01T06:52:16.773Z,6.03
2023-05-01T06:54:45.006Z,5.70
2023-05-01T06:57:14.781Z,5.82
2023-05-01T06:59:43.217Z,5.63
2023-05-01T07:02:11.875Z,5.45
2023-05-01T07:04:40.132Z,5.60
2023-05-01T07:07:08.868Z,4.85
2023-05-01T07:09:37.512Z,4.78
2023-05-01T07:12:06.941Z,5.20
2023-05-01T07:15:24.969Z,4.78
2023-05-01T07:17:57.814Z,5.20
2023-05-01T07:20:38.794Z,5.43
2023-05-01T07:23:09.355Z,5.70
2023-05-01T07:28:13.355Z,4.85
2023-05-01T07:30:44.351Z,4.95
2023-05-01T07:33:13.347Z,4.10
2023-05-01T07:35:41.846Z,4.20
2023-05-01T07:38:19.922Z,4.45
2023-05-01T07:40:52.806Z,3.30
2023-05-01T07:43:25.255Z,3.63
2023-05-01T07:46:02.958Z,4.20
2023-05-01T07:48:32.462Z,4.25
2023-05-01T07:51:03.991Z,4.72
2023-05-01T07:53:33.362Z,4.20
2023-05-01T07:56:31.373Z,4.60
2023-05-01T08:03:17.137Z,4.30
2023-05-01T08:08:57.828Z,4.30
2023-05-01T08:11:27.075Z,4.70
2023-05-01T08:14:04.552Z,4.43
2023-05-01T08:17:03.794Z,4.55
2023-05-01T08:22:03.934Z,4.70
2023-05-01T08:24:32.525Z,4.60
2023-05-01T08:27:01.308Z,4.50
2023-05-01T08:29:31.429Z,4.45
2023-05-01T08:31:59.750Z,4.50
2023-05-01T08:34:38.016Z,4.38
2023-05-01T08:37:06.435Z,3.67
2023-05-01T08:39:44.060Z,3.50
2023-05-01T08:42:13.833Z,3.55
2023-05-01T08:44:44.002Z,3.92
2023-05-01T08:47:19.263Z,3.33
2023-05-01T08:49:51.349Z,3.30
2023-05-01T08:52:22.456Z,3.22
2023-05-01T08:54:57.964Z,3.65
2023-05-01T08:57:30.935Z,3.13
2023-05-01T09:00:01.767Z,3.40
2023-05-01T09:02:35.587Z,4.25
2023-05-01T09:05:08.378Z,3.38
2023-05-01T09:07:37.956Z,3.78
2023-05-01T09:10:08.460Z,3.20
2023-05-01T09:12:37.679Z,3.80
2023-05-01T09:15:08.067Z,3.15
2023-05-01T09:17:38.231Z,3.45
2023-05-01T09:20:08.051Z,3.20
2023-05-01T09:22:36.774Z,3.17
2023-05-01T09:25:06.034Z,3.83
2023-05-01T09:27:39.320Z,3.40
2023-05-01T09:30:20.243Z,3.08
2023-05-01T09:33:07.719Z,3.55
2023-05-01T09:35:53.981Z,3.70
2023-05-01T09:38:26.059Z,3.20
2023-05-01T09:41:00.598Z,3.20
2023-05-01T09:43:32.930Z,2.97
2023-05-01T09:46:15.452Z,2.97
2023-05-01T09:49:01.474Z,2.60
2023-05-01T09:51:38.846Z,2.90
2023-05-01T09:54:22.184Z,2.85
2023-05-01T09:56:51.580Z,2.85
2023-05-01T09:59:23.223Z,2.47
2023-05-01T10:01:52.754Z,3.17
2023-05-01T10:04:31.616Z,3.08
2023-05-01T10:07:17.477Z,2.97
2023-05-01T10:09:48.172Z,2.70
2023-05-01T10:12:35.051Z,3.22
2023-05-01T10:15:26.770Z,3.42
2023-05-01T10:17:58.078Z,3.13
2023-05-01T10:20:28.251Z,3.63
2023-05-01T10:22:59.771Z,3.30
2023-05-01T10:25:31.295Z,3.00
2023-05-01T10:28:29.682Z,3.00
2023-05-01T10:30:59.438Z,3.15
2023-05-01T10:33:37.467Z,3.25
2023-05-01T10:36:13.110Z,3.10
2023-05-01T10:38:45.918Z,3.08
2023-05-01T10:41:17.762Z,3.42
2023-05-01T10:46:22.003Z,2.90
2023-05-01T10:48:52.168Z,2.90
2023-05-01T10:51:27.551Z,2.95
2023-05-01T10:54:12.453Z,2.63
2023-05-01T10:56:43.115Z,2.92
2023-05-01T10:59:13.147Z,2.92
2023-05-01T11:01:44.167Z,3.20
2023-05-01T11:04:22.269Z,3.67
2023-05-01T11:07:05.979Z,2.70
2023-05-01T11:09:43.167Z,3.42
2023-05-01T11:12:36.155Z,2.65
2023-05-01T11:15:09.454Z,2.90
2023-05-01T11:17:43.773Z,3.03
2023-05-01T11:20:13.727Z,3.22
2023-05-01T11:22:48.297Z,4.03
2023-05-01T11:25:22.152Z,3.60
2023-05-01T11:27:52.394Z,3.78
2023-05-01T11:30:21.628Z,4.13
2023-05-01T11:32:51.563Z,3.28
2023-05-01T11:35:26.552Z,4.00
2023-05-01T11:37:57.955Z,3.60
2023-05-01T11:40:28.750Z,3.75
2023-05-01T11:43:02.096Z,4.03
2023-05-01T11:45:32.039Z,3.50
2023-05-01T11:48:03.016Z,3.95
2023-05-01T11:50:36.000Z,3.97
2023-05-01T11:53:17.986Z,3.58
2023-05-01T11:58:14.886Z,3.60
2023-05-01T12:00:44.224Z,3.33
2023-05-01T12:03:14.706Z,3.30
2023-05-01T12:05:45.291Z,3.70
2023-05-01T12:08:19.031Z,3.13
2023-05-01T12:10:58.830Z,3.20
2023-05-01T12:13:27.500Z,3.17
2023-05-01T12:15:57.211Z,3.58
2023-05-01T12:18:25.807Z,3.50
2023-05-01T12:20:55.455Z,3.20
2023-05-01T12:24:16.361Z,3.40
2023-05-01T12:26:46.408Z,2.78
2023-05-01T12:32:58.410Z,3.88
2023-05-01T12:35:30.840Z,4.70
2023-05-01T12:37:59.777Z,7.43
2023-05-01T12:40:28.368Z,4.63
2023-05-01T12:42:58.200Z,4.53
2023-05-01T12:45:26.663Z,3.63
2023-05-01T12:47:55.285Z,3.75
2023-05-01T12:50:23.645Z,5.30
2023-05-01T12:52:52.487Z,3.90
2023-05-01T12:55:20.883Z,4.20
2023-05-01T12:57:54.621Z,3.58
2023-05-01T13:00:23.746Z,3.70
2023-05-01T13:02:52.459Z,3.30
2023-05-01T13:05:20.957Z,4.75
2023-05-01T13:07:50.119Z,4.65
2023-05-01T13:10:30.590Z,3.60
2023-05-01T13:13:25.187Z,3.70
2023-05-01T13:15:53.837Z,3.03
2023-05-01T13:18:22.724Z,3.00
2023-05-01T13:20:51.218Z,3.40
2023-05-01T13:23:19.767Z,3.13
2023-05-01T13:25:48.076Z,3.00
2023-05-01T13:28:20.113Z,4.75
2023-05-01T13:30:50.297Z,3.03
2023-05-01T13:33:19.198Z,3.40
2023-05-01T13:35:47.480Z,5.00
2023-05-01T13:38:16.282Z,3.00
2023-05-01T13:40:44.551Z,2.90
2023-05-01T13:43:17.166Z,3.05
2023-05-01T13:45:47.436Z,3.10
2023-05-01T13:48:18.365Z,2.88
2023-05-01T13:50:46.787Z,2.78
2023-05-01T13:53:16.506Z,3.53
2023-05-01T13:55:44.881Z,3.05
2023-05-01T13:58:16.648Z,4.63
2023-05-01T14:00:47.362Z,3.35
2023-05-01T14:05:44.967Z,3.25
2023-05-01T14:08:15.504Z,3.27
2023-05-01T14:10:43.874Z,3.17
2023-05-01T14:13:14.089Z,3.22
2023-05-01T14:15:44.171Z,2.90
2023-05-01T14:18:16.853Z,3.17
2023-05-01T14:20:49.493Z,2.90
2023-05-01T14:23:24.925Z,3.20
2023-05-01T14:25:55.556Z,4.00
2023-05-01T14:30:55.101Z,3.33
2023-05-01T14:33:31.412Z,3.30
2023-05-01T14:36:18.859Z,2.92
2023-05-01T14:38:51.021Z,3.03
2023-05-01T14:41:19.841Z,3.10
2023-05-01T14:43:51.321Z,3.47
2023-05-01T14:46:35.504Z,3.45
2023-05-01T14:49:04.310Z,3.53
2023-05-01T14:51:40.827Z,3.55
2023-05-01T14:54:16.099Z,3.90
2023-05-01T14:57:06.478Z,4.43
2023-05-01T14:59:56.543Z,3.05
2023-05-01T15:02:42.750Z,3.60
2023-05-01T15:05:11.908Z,3.67
2023-05-01T15:07:40.419Z,3.42
2023-05-01T15:10:09.895Z,3.50
2023-05-01T15:12:47.535Z,3.47
2023-05-01T15:15:22.053Z,3.05
2023-05-01T15:17:50.760Z,4.00
2023-05-01T15:20:19.533Z,4.07
2023-05-01T15:22:48.032Z,3.45
2023-05-01T15:25:16.695Z,3.80
2023-05-01T15:27:45.955Z,3.42
2023-05-01T15:30:15.435Z,3.55
2023-05-01T15:32:43.844Z,3.50
2023-05-01T15:35:13.008Z,2.97
2023-05-01T15:37:41.926Z,3.10
2023-05-01T15:40:10.726Z,3.28
2023-05-01T15:42:39.990Z,3.20
2023-05-01T15:45:10.074Z,3.05
2023-05-01T15:47:38.786Z,3.35
2023-05-01T15:50:13.699Z,3.83
2023-05-01T15:52:42.004Z,3.83
2023-05-01T15:55:13.162Z,4.28
2023-05-01T15:57:51.918Z,3.13
2023-05-01T16:00:25.738Z,3.85
2023-05-01T16:02:54.747Z,2.95
2023-05-01T16:05:32.490Z,3.45
2023-05-01T16:10:37.406Z,3.50
2023-05-01T16:13:08.494Z,3.30
2023-05-01T16:15:38.668Z,5.28
2023-05-01T16:18:07.460Z,3.45
2023-05-01T16:20:42.706Z,3.30
2023-05-01T16:23:15.636Z,3.20
2023-05-01T16:25:46.341Z,3.10
2023-05-01T16:28:17.201Z,3.37
2023-05-01T16:33:19.864Z,4.85
2023-05-01T16:36:07.876Z,4.68
2023-05-01T16:38:37.042Z,3.90
2023-05-01T16:41:07.869Z,4.68
2023-05-01T16:43:36.354Z,4.57
2023-05-01T16:46:30.552Z,3.88
2023-05-01T16:49:01.816Z,3.70
2023-05-01T16:51:32.704Z,4.63
2023-05-01T16:54:01.133Z,5.15
2023-05-01T16:56:30.732Z,4.70
2023-05-01T16:58:59.550Z,5.57
2023-05-01T17:01:28.139Z,7.53
2023-05-01T17:03:56.449Z,7.03
2023-05-01T17:06:25.415Z,6.93
2023-05-01T17:08:55.018Z,7.70
2023-05-01T17:12:13.816Z,6.28
2023-05-01T17:14:41.993Z,7.60
2023-05-01T17:17:11.366Z,9.40
2023-05-01T17:19:39.803Z,8.68
2023-05-01T17:22:10.184Z,6.88
2023-05-01T17:24:40.830Z,9.48
2023-05-01T17:27:10.344Z,10.73
2023-05-01T17:29:39.393Z,9.90
2023-05-01T17:32:08.318Z,10.57
2023-05-01T17:34:36.739Z,13.65
2023-05-01T17:37:06.190Z,11.35
2023-05-01T17:39:38.687Z,12.73
2023-05-01T17:42:07.543Z,11.73
2023-05-01T17:45:01.212Z,11.98
2023-05-01T17:47:58.399Z,11.35
2023-05-01T17:50:26.826Z,8.73
2023-05-01T17:53:16.356Z,9.05
2023-05-01T17:55:44.893Z,9.80
2023-05-01T17:58:13.873Z,17.23
2023-05-01T18:02:00.967Z,23.13
2023-05-01T18:04:44.834Z,22.35
2023-05-01T18:07:27.425Z,17.55
2023-05-01T18:10:01.285Z,16.02
2023-05-01T18:12:37.660Z,15.63
2023-05-01T18:15:06.704Z,13.10
2023-05-01T18:17:36.313Z,13.88
2023-05-01T18:20:34.476Z,14.40
2023-05-01T18:23:33.188Z,15.13
2023-05-01T18:26:01.683Z,15.45
2023-05-01T18:28:31.882Z,14.52
2023-05-01T18:31:07.732Z,15.48
2023-05-01T18:33:36.354Z,18.10
2023-05-01T18:36:13.386Z,18.35
2023-05-01T18:38:46.375Z,24.77
2023-05-01T18:52:33.396Z,34.83
2023-05-01T18:55:43.107Z,29.85
2023-05-01T18:59:57.817Z,36.63
2023-05-01T19:15:54.058Z,24.85
2023-05-01T19:29:27.818Z,31.08
2023-05-01T19:42:07.512Z,23.48
2023-05-01T19:45:14.714Z,21.92
2023-05-01T19:48:05.336Z,30.45
2023-05-01T19:50:59.176Z,35.95
2023-05-01T19:53:52.048Z,17.30
2023-05-01T20:12:15.067Z,23.27
2023-05-01T20:13:29.857Z,23.15
2023-05-01T20:20:27.565Z,14.88
2023-05-01T20:23:14.679Z,15.98
2023-05-01T20:26:05.959Z,14.25
2023-05-01T20:29:26.815Z,18.42
2023-05-01T20:32:26.173Z,13.23
2023-05-01T20:35:05.775Z,11.73
2023-05-01T20:37:39.953Z,10.32
2023-05-01T20:44:30.600Z,12.00
2023-05-01T20:46:59.677Z,12.75
2023-05-01T20:49:29.516Z,14.07
2023-05-01T20:51:58.858Z,12.68
2023-05-01T20:57:23.780Z,11.48
2023-05-01T20:59:55.038Z,12.20
2023-05-01T21:02:26.823Z,15.65
2023-05-01T21:04:55.524Z,17.33
2023-05-01T21:07:24.627Z,29.63
2023-05-01T21:09:52.929Z,30.42
2023-05-01T21:12:29.504Z,27.13
2023-05-01T21:15:19.016Z,17.08
2023-05-01T21:18:07.677Z,26.65
2023-05-01T21:20:53.644Z,13.80
2023-05-01T21:23:26.395Z,14.95
2023-05-01T21:26:03.795Z,14.85
2023-05-01T21:28:41.190Z,13.27
2023-05-01T21:31:15.967Z,14.10
2023-05-01T21:33:53.909Z,12.93
2023-05-01T21:36:26.523Z,12.48
2023-05-01T21:39:35.318Z,13.70
2023-05-01T21:42:06.887Z,12.18
2023-05-01T21:45:09.418Z,13.07
2023-05-01T21:47:44.027Z,18.85
2023-05-01T21:50:16.547Z,19.48
2023-05-01T21:52:52.949Z,17.67
2023-05-01T21:55:33.407Z,19.40
2023-05-01T21:58:02.409Z,19.38
2023-05-01T22:00:31.997Z,19.48
2023-05-01T22:03:07.180Z,18.80
2023-05-01T22:05:43.394Z,18.95
2023-05-01T22:08:19.693Z,22.15
2023-05-01T22:11:08.325Z,19.48
2023-05-01T22:13:37.140Z,16.92
2023-05-01T22:16:07.981Z,15.13
2023-05-01T22:18:36.663Z,13.73
2023-05-01T22:21:05.522Z,12.18
2023-05-01T22:23:33.852Z,11.50
2023-05-01T22:26:02.774Z,11.80
2023-05-01T22:28:33.499Z,10.93
2023-05-01T22:31:02.621Z,10.68
2023-05-01T22:33:31.022Z,11.23
2023-05-01T22:36:00.179Z,10.45
2023-05-01T22:38:29.865Z,11.30
2023-05-01T22:41:02.218Z,10.20
2023-05-01T22:43:30.872Z,9.60
2023-05-01T22:45:59.824Z,9.40
2023-05-01T22:48:34.424Z,9.98
2023-05-01T22:51:03.332Z,9.10
2023-05-01T22:53:31.918Z,8.02
2023-05-01T22:56:00.826Z,8.32
2023-05-01T22:58:30.698Z,7.93
2023-05-01T23:00:59.767Z,7.97
2023-05-01T23:03:29.320Z,7.40
2023-05-01T23:06:23.564Z,6.97
2023-05-01T23:08:53.927Z,6.80
2023-05-01T23:11:24.252Z,6.65
2023-05-01T23:13:52.668Z,6.63
2023-05-01T23:16:21.424Z,6.35
2023-05-01T23:18:49.831Z,6.25
2023-05-01T23:21:19.842Z,6.18
2023-05-01T23:23:48.250Z,6.45
2023-05-01T23:26:38.611Z,6.28
2023-05-01T23:29:16.356Z,6.07
2023-05-01T23:31:47.686Z,6.15
2023-05-01T23:34:17.755Z,5.93
2023-05-01T23:36:47.420Z,5.68
2023-05-01T23:39:16.591Z,6.32
2023-05-01T23:41:45.961Z,5.88
2023-05-01T23:44:14.323Z,5.80
2023-05-01T23:46:43.184Z,5.93
2023-05-01T23:49:11.844Z,5.85
2023-05-01T23:51:40.892Z,5.68
2023-05-01T23:54:09.281Z,5.57
2023-05-01T23:56:42.173Z,5.50
2023-05-01T23:59:16.532Z,5.68
